createdAt,value
2017-08-13T00:08:59.541Z,16.17
2017-08-13T00:19:22.865Z,15.90
2017-08-13T00:29:45.083Z,17.90
2017-08-13T00:45:23.003Z,16.40
2017-08-13T00:55:48.865Z,12.55
2017-08-13T01:00:54.772Z,7.43
2017-08-13T01:11:18.011Z,13.23
2017-08-13T01:21:39.242Z,13.15
2017-08-13T01:32:01.838Z,10.77
2017-08-13T01:47:41.317Z,13.90
2017-08-13T01:52:47.169Z,10.37
2017-08-13T02:03:09.814Z,14.73
2017-08-13T02:08:15.578Z,9.97
2017-08-13T02:18:38.340Z,12.70
2017-08-13T02:29:00.866Z,15.43
2017-08-13T02:39:23.582Z,13.50
2017-08-13T02:49:46.096Z,14.35
2017-08-13T03:00:08.709Z,15.75
2017-08-13T03:10:30.604Z,15.90
2017-08-13T03:20:52.421Z,19.08
2017-08-13T03:31:14.220Z,20.07
2017-08-13T03:46:52.808Z,19.20
2017-08-13T03:57:15.401Z,20.88
2017-08-13T04:07:38.012Z,22.80
2017-08-13T04:17:59.556Z,20.00
2017-08-13T04:28:21.457Z,20.73
2017-08-13T04:38:48.100Z,21.02
2017-08-13T04:49:09.925Z,19.60
2017-08-13T04:59:31.961Z,18.80
2017-08-13T05:09:53.878Z,20.10
2017-08-13T05:20:16.473Z,19.30
2017-08-13T05:30:38.374Z,19.95
2017-08-13T05:41:14.852Z,17.20
2017-08-13T05:51:36.498Z,19.67
2017-08-13T06:01:59.325Z,17.70
2017-08-13T06:12:22.841Z,17.10
2017-08-13T06:22:45.436Z,15.90
2017-08-13T06:33:07.195Z,15.73
2017-08-13T06:48:45.713Z,15.93
2017-08-13T06:59:07.283Z,10.87
2017-08-13T07:09:29.137Z,9.90
2017-08-13T07:19:52.506Z,7.10
2017-08-13T07:30:15.144Z,5.47
2017-08-13T07:45:54.727Z,5.73
2017-08-13T07:56:16.535Z,5.90
2017-08-13T08:06:38.514Z,4.50
2017-08-13T08:17:02.968Z,3.20
2017-08-13T08:22:08.739Z,4.07
2017-08-13T08:32:30.564Z,4.30
2017-08-13T08:48:10.223Z,3.30
2017-08-13T08:58:32.744Z,3.43
2017-08-13T09:08:56.882Z,2.60
2017-08-13T09:19:19.636Z,2.30
2017-08-13T09:29:42.247Z,1.90
2017-08-13T09:45:21.581Z,2.40
2017-08-13T09:55:45.931Z,2.20
2017-08-13T10:06:08.473Z,1.40
2017-08-13T10:16:44.779Z,1.50
2017-08-13T10:27:05.357Z,1.60
2017-08-13T10:37:28.707Z,1.30
2017-08-13T10:47:50.480Z,1.30
2017-08-13T10:52:56.240Z,1.20
2017-08-13T11:03:19.174Z,1.30
2017-08-13T11:13:41.072Z,1.15
2017-08-13T11:18:46.846Z,1.13
2017-08-13T11:29:09.412Z,1.12
2017-08-13T11:39:31.974Z,1.20
2017-08-13T11:49:54.560Z,1.33
2017-08-13T12:00:17.075Z,1.73
2017-08-13T12:10:39.672Z,1.40
2017-08-13T12:21:01.464Z,1.70
2017-08-13T12:31:23.208Z,1.73
2017-08-13T12:47:00.240Z,1.55
2017-08-13T12:57:21.967Z,1.70
2017-08-13T13:07:44.588Z,1.65
2017-08-13T13:18:07.129Z,1.17
2017-08-13T13:28:33.623Z,1.30
2017-08-13T13:38:54.170Z,1.30
2017-08-13T13:49:15.990Z,1.20
2017-08-13T13:59:38.502Z,1.10
2017-08-13T14:10:01.195Z,1.40
2017-08-13T14:20:22.932Z,1.33
2017-08-13T14:30:46.192Z,1.20
2017-08-13T14:46:22.560Z,1.62
2017-08-13T14:56:45.870Z,1.70
2017-08-13T15:07:09.429Z,1.77
2017-08-13T15:17:32.988Z,1.20
2017-08-13T15:27:55.526Z,1.70
2017-08-13T15:38:17.388Z,2.20
2017-08-13T15:48:39.114Z,2.10
2017-08-13T15:59:01.701Z,2.00
2017-08-13T16:09:24.256Z,1.58
2017-08-13T16:19:46.190Z,1.70
2017-08-13T16:30:08.066Z,2.30
2017-08-13T16:40:29.923Z,2.35
2017-08-13T16:50:56.529Z,2.83
2017-08-13T17:01:18.363Z,2.90
2017-08-13T17:11:40.145Z,2.50
2017-08-13T17:22:02.089Z,2.60
2017-08-13T17:32:23.921Z,2.83
2017-08-13T17:48:02.478Z,3.00
2017-08-13T17:58:26.615Z,2.92
2017-08-13T18:08:48.472Z,2.60
2017-08-13T18:19:11.204Z,3.40
2017-08-13T18:29:33.146Z,3.90
2017-08-13T18:39:59.383Z,3.70
2017-08-13T18:50:22.104Z,4.00
2017-08-13T19:00:47.061Z,4.20
2017-08-13T19:05:52.850Z,3.97
2017-08-13T19:16:15.260Z,3.70
2017-08-13T19:26:37.391Z,4.12
2017-08-13T19:36:59.906Z,4.55
2017-08-13T19:47:26.471Z,5.27
2017-08-13T19:57:49.033Z,5.20
2017-08-13T20:08:10.773Z,6.17
2017-08-13T20:18:33.431Z,6.90
2017-08-13T20:28:55.335Z,7.53
2017-08-13T20:39:17.097Z,6.80
2017-08-13T20:49:39.703Z,7.20
2017-08-13T20:54:44.697Z,6.53
2017-08-13T21:05:06.240Z,6.67
2017-08-13T21:15:29.973Z,5.70
2017-08-13T21:20:35.734Z,5.50
2017-08-13T21:30:58.325Z,5.33
2017-08-13T21:46:36.887Z,6.53
2017-08-13T21:56:59.405Z,6.30
2017-08-13T22:07:23.014Z,7.33
2017-08-13T22:17:45.737Z,7.20
2017-08-13T22:28:08.300Z,4.97
2017-08-13T22:38:30.865Z,5.63
2017-08-13T22:48:53.446Z,6.23
2017-08-13T23:01:21.260Z,5.70
2017-08-13T23:11:43.786Z,5.60
2017-08-13T23:22:09.563Z,5.17
2017-08-13T23:32:35.628Z,5.30
2017-08-13T23:37:41.416Z,5.40
2017-08-13T23:48:05.004Z,6.73
2017-08-13T23:58:27.413Z,6.40
